createdAt,value
2018-06-03T00:01:09.962Z,19.10
2018-06-03T00:03:41.553Z,19.20
2018-06-03T00:06:12.818Z,19.20
2018-06-03T00:08:43.404Z,19.30
2018-06-03T00:11:14.889Z,19.30
2018-06-03T00:13:45.163Z,19.30
2018-06-03T00:16:16.065Z,19.20
2018-06-03T00:18:46.859Z,19.20
2018-06-03T00:21:28.433Z,19.20
2018-06-03T00:23:58.452Z,19.10
2018-06-03T00:26:44.667Z,19.10
2018-06-03T00:29:15.402Z,19.10
2018-06-03T00:31:47.122Z,19.00
2018-06-03T00:34:17.355Z,19.60
2018-06-03T00:36:49.987Z,19.00
2018-06-03T00:39:20.321Z,18.90
2018-06-03T00:41:50.367Z,18.90
2018-06-03T00:44:20.460Z,19.00
2018-06-03T00:46:50.831Z,19.00
2018-06-03T00:49:20.766Z,18.90
2018-06-03T00:51:50.897Z,18.90
2018-06-03T00:54:21.317Z,18.80
2018-06-03T00:57:01.924Z,18.80
2018-06-03T00:59:32.427Z,18.70
2018-06-03T01:02:02.473Z,18.60
2018-06-03T01:04:32.557Z,18.50
2018-06-03T01:08:05.216Z,18.40
2018-06-03T01:10:35.520Z,18.50
2018-06-03T01:13:05.895Z,18.40
2018-06-03T01:15:37.071Z,18.40
2018-06-03T01:18:07.093Z,18.70
2018-06-03T01:20:37.090Z,18.40
2018-06-03T01:23:08.303Z,18.20
2018-06-03T01:25:38.618Z,18.40
2018-06-03T01:28:09.467Z,18.60
2018-06-03T01:30:40.320Z,18.80
2018-06-03T01:33:10.480Z,18.80
2018-06-03T01:35:40.523Z,18.80
2018-06-03T01:38:11.425Z,18.90
2018-06-03T01:40:48.686Z,18.60
2018-06-03T01:43:27.863Z,18.60
2018-06-03T01:45:58.197Z,18.60
2018-06-03T01:48:28.281Z,18.70
2018-06-03T01:50:58.304Z,18.70
2018-06-03T01:53:28.447Z,18.60
2018-06-03T01:55:58.476Z,18.50
2018-06-03T01:58:29.384Z,18.60
2018-06-03T02:00:59.730Z,18.60
2018-06-03T02:03:29.891Z,18.70
2018-06-03T02:06:00.059Z,18.80
2018-06-03T02:08:31.038Z,18.90
2018-06-03T02:11:01.188Z,18.80
2018-06-03T02:13:31.389Z,18.90
2018-06-03T02:18:50.016Z,18.90
2018-06-03T02:21:20.203Z,18.80
2018-06-03T02:23:50.444Z,18.60
2018-06-03T02:26:22.733Z,18.70
2018-06-03T02:28:52.939Z,18.70
2018-06-03T02:31:23.113Z,18.70
2018-06-03T02:33:53.495Z,18.70
2018-06-03T02:36:23.564Z,18.60
2018-06-03T02:38:53.717Z,18.60
2018-06-03T02:41:24.034Z,18.60
2018-06-03T02:43:54.074Z,18.50
2018-06-03T02:46:24.232Z,18.60
2018-06-03T02:48:55.349Z,18.60
2018-06-03T02:51:25.444Z,18.60
2018-06-03T02:53:55.511Z,18.50
2018-06-03T02:56:26.599Z,18.50
2018-06-03T02:58:56.480Z,18.50
2018-06-03T03:01:26.543Z,18.40
2018-06-03T03:03:56.593Z,18.30
2018-06-03T03:06:27.558Z,18.10
2018-06-03T03:09:08.670Z,18.10
2018-06-03T03:12:01.488Z,18.00
2018-06-03T03:14:31.616Z,18.00
2018-06-03T03:17:02.037Z,18.00
2018-06-03T03:19:32.242Z,17.90
2018-06-03T03:22:42.411Z,17.80
2018-06-03T03:25:20.474Z,17.80
2018-06-03T03:27:51.007Z,17.80
2018-06-03T03:30:21.099Z,17.80
2018-06-03T03:32:51.138Z,17.80
2018-06-03T03:35:21.134Z,17.80
2018-06-03T03:37:51.225Z,17.70
2018-06-03T03:40:21.623Z,17.20
2018-06-03T03:42:51.615Z,16.00
2018-06-03T03:45:21.688Z,17.60
2018-06-03T03:47:59.733Z,17.50
2018-06-03T03:50:37.667Z,17.50
2018-06-03T03:53:20.921Z,16.60
2018-06-03T03:55:59.935Z,17.60
2018-06-03T03:58:31.098Z,17.90
2018-06-03T04:01:01.502Z,17.90
2018-06-03T04:03:32.239Z,18.00
2018-06-03T04:06:03.096Z,18.00
2018-06-03T04:08:33.524Z,18.00
2018-06-03T04:11:03.675Z,18.10
2018-06-03T04:13:34.031Z,18.10
2018-06-03T04:16:05.250Z,18.10
2018-06-03T04:18:35.288Z,18.10
2018-06-03T04:21:05.599Z,18.10
2018-06-03T04:23:36.000Z,17.20
2018-06-03T04:26:06.977Z,18.50
2018-06-03T04:28:37.066Z,17.90
2018-06-03T04:31:07.201Z,18.60
2018-06-03T04:33:38.555Z,18.60
2018-06-03T04:36:08.625Z,18.80
2018-06-03T04:38:38.861Z,18.80
2018-06-03T04:41:09.229Z,18.90
2018-06-03T04:43:39.254Z,19.00
2018-06-03T04:46:09.295Z,19.70
2018-06-03T04:48:39.842Z,21.00
2018-06-03T04:51:09.928Z,22.10
2018-06-03T04:53:40.914Z,23.90
2018-06-03T04:56:11.315Z,23.90
2018-06-03T04:58:41.485Z,24.70
2018-06-03T05:01:11.554Z,25.30
2018-06-03T05:03:42.776Z,26.10
2018-06-03T05:06:13.749Z,26.20
2018-06-03T05:08:43.845Z,26.20
2018-06-03T05:11:15.160Z,27.00
2018-06-03T05:13:45.454Z,27.00
2018-06-03T05:16:15.605Z,27.20
2018-06-03T05:18:46.015Z,27.60
2018-06-03T05:21:16.366Z,28.00
2018-06-03T05:23:46.537Z,28.30
2018-06-03T05:26:17.030Z,28.30
2018-06-03T05:28:47.813Z,28.80
2018-06-03T05:31:18.040Z,30.30
2018-06-03T05:33:48.179Z,29.10
2018-06-03T05:36:18.227Z,29.80
2018-06-03T05:38:49.511Z,28.90
2018-06-03T05:41:19.782Z,28.80
2018-06-03T05:43:49.767Z,29.30
2018-06-03T05:46:20.288Z,29.90
2018-06-03T05:48:52.029Z,30.30
2018-06-03T05:51:22.384Z,30.20
2018-06-03T05:53:52.765Z,28.20
2018-06-03T05:56:23.717Z,28.70
2018-06-03T05:58:54.003Z,27.30
2018-06-03T06:01:25.169Z,29.20
2018-06-03T06:03:56.088Z,29.50
2018-06-03T06:06:26.130Z,29.50
2018-06-03T06:08:57.348Z,29.20
2018-06-03T06:11:27.539Z,29.20
2018-06-03T06:14:10.339Z,28.60
2018-06-03T06:16:42.101Z,28.00
2018-06-03T06:19:12.673Z,28.00
2018-06-03T06:21:43.801Z,27.90
2018-06-03T06:24:14.109Z,27.20
2018-06-03T06:26:44.637Z,27.90
2018-06-03T06:29:14.781Z,27.70
2018-06-03T06:31:44.872Z,27.00
2018-06-03T06:34:15.488Z,26.50
2018-06-03T06:36:45.586Z,26.20
2018-06-03T06:39:16.614Z,26.30
2018-06-03T06:41:47.559Z,25.90
2018-06-03T06:44:18.405Z,25.30
2018-06-03T06:46:48.764Z,25.20
2018-06-03T06:49:19.090Z,23.60
2018-06-03T06:51:49.425Z,23.50
2018-06-03T06:54:19.519Z,22.90
2018-06-03T06:56:50.052Z,22.90
2018-06-03T06:59:20.472Z,22.80
2018-06-03T07:01:50.959Z,22.80
2018-06-03T07:04:21.568Z,22.90
2018-06-03T07:06:52.714Z,22.60
2018-06-03T07:09:22.949Z,21.90
2018-06-03T07:11:54.090Z,21.90
2018-06-03T07:14:24.257Z,22.30
2018-06-03T07:16:54.504Z,22.30
2018-06-03T07:19:25.114Z,21.80
2018-06-03T07:21:56.241Z,21.90
2018-06-03T07:24:27.373Z,21.20
2018-06-03T07:26:57.844Z,21.10
2018-06-03T07:29:28.089Z,21.10
2018-06-03T07:31:58.225Z,21.30
2018-06-03T07:34:28.450Z,21.70
2018-06-03T07:36:58.507Z,21.00
2018-06-03T07:39:29.659Z,22.40
2018-06-03T07:42:00.725Z,21.30
2018-06-03T07:44:30.888Z,21.30
2018-06-03T07:47:02.289Z,20.70
2018-06-03T07:49:32.527Z,20.70
2018-06-03T07:52:02.656Z,21.20
2018-06-03T07:54:32.810Z,21.70
2018-06-03T07:57:03.696Z,22.10
2018-06-03T07:59:33.981Z,22.10
2018-06-03T08:02:05.523Z,22.30
2018-06-03T08:04:35.835Z,22.30
2018-06-03T08:07:05.940Z,21.80
2018-06-03T08:09:36.504Z,22.10
2018-06-03T08:12:07.418Z,23.40
2018-06-03T08:14:38.004Z,23.50
2018-06-03T08:17:08.864Z,21.80
2018-06-03T08:19:39.285Z,22.00
2018-06-03T08:22:09.858Z,21.50
2018-06-03T08:24:40.869Z,22.10
2018-06-03T08:27:11.179Z,20.80
2018-06-03T08:29:42.234Z,21.00
2018-06-03T08:32:13.682Z,21.50
2018-06-03T08:34:43.827Z,21.70
2018-06-03T08:37:15.557Z,21.40
2018-06-03T08:39:46.868Z,22.00
2018-06-03T08:42:17.395Z,22.00
2018-06-03T08:44:48.606Z,21.80
2018-06-03T08:47:19.202Z,23.90
2018-06-03T08:49:50.152Z,21.40
2018-06-03T08:52:21.022Z,21.70
2018-06-03T08:54:52.840Z,21.80
2018-06-03T08:57:24.576Z,21.80
2018-06-03T08:59:56.162Z,21.70
2018-06-03T09:02:26.436Z,21.60
2018-06-03T09:04:57.800Z,21.70
2018-06-03T09:07:29.340Z,22.30
2018-06-03T09:10:01.043Z,22.20
2018-06-03T09:12:31.620Z,22.60
2018-06-03T09:15:03.166Z,22.60
2018-06-03T09:17:33.523Z,23.50
2018-06-03T09:20:04.588Z,22.70
2018-06-03T09:22:36.682Z,22.40
2018-06-03T09:25:09.079Z,22.70
2018-06-03T09:27:49.093Z,23.10
2018-06-03T09:30:21.601Z,22.70
2018-06-03T09:32:54.424Z,22.70
2018-06-03T09:35:26.384Z,22.70
2018-06-03T09:37:58.125Z,22.50
2018-06-03T09:40:30.536Z,22.70
2018-06-03T09:43:03.253Z,22.70
2018-06-03T09:45:40.873Z,22.80
2018-06-03T09:48:12.434Z,21.50
2018-06-03T09:50:52.093Z,22.50
2018-06-03T09:53:24.344Z,22.10
2018-06-03T09:55:58.970Z,22.60
2018-06-03T09:58:31.973Z,22.50
2018-06-03T10:01:04.882Z,22.60
2018-06-03T10:03:40.781Z,22.10
2018-06-03T10:06:11.711Z,22.10
2018-06-03T10:08:42.935Z,22.60
2018-06-03T10:11:16.583Z,22.90
2018-06-03T10:13:48.091Z,22.00
2018-06-03T10:16:19.511Z,22.40
2018-06-03T10:18:58.976Z,22.10
2018-06-03T10:21:34.082Z,22.10
2018-06-03T10:24:08.039Z,22.50
2018-06-03T10:26:38.988Z,22.50
2018-06-03T10:29:11.410Z,23.10
2018-06-03T10:31:44.324Z,23.10
2018-06-03T10:34:15.785Z,22.40
2018-06-03T10:36:47.710Z,22.40
2018-06-03T10:39:18.795Z,22.50
2018-06-03T10:41:51.973Z,22.80
2018-06-03T10:44:22.607Z,22.80
2018-06-03T10:46:53.245Z,22.60
2018-06-03T10:49:25.617Z,23.20
2018-06-03T10:51:58.063Z,22.70
2018-06-03T10:54:30.391Z,22.70
2018-06-03T10:57:01.219Z,22.60
2018-06-03T10:59:31.922Z,23.00
2018-06-03T11:02:04.855Z,23.00
2018-06-03T11:04:36.025Z,23.20
2018-06-03T11:07:07.542Z,23.20
2018-06-03T11:09:39.332Z,23.40
2018-06-03T11:12:10.382Z,23.70
2018-06-03T11:14:41.391Z,23.70
2018-06-03T11:17:14.775Z,23.60
2018-06-03T11:21:12.723Z,23.70
2018-06-03T11:23:43.334Z,23.70
2018-06-03T11:26:13.966Z,23.30
2018-06-03T11:28:44.583Z,23.60
2018-06-03T11:31:18.984Z,23.90
2018-06-03T11:33:51.601Z,23.50
2018-06-03T11:36:22.031Z,23.50
2018-06-03T11:39:14.160Z,24.00
2018-06-03T11:41:45.305Z,24.20
2018-06-03T11:44:16.507Z,23.90
2018-06-03T11:46:47.185Z,23.90
2018-06-03T11:49:19.831Z,24.30
2018-06-03T11:51:53.436Z,24.30
2018-06-03T11:54:24.465Z,24.10
2018-06-03T11:58:10.060Z,23.90
2018-06-03T12:00:41.598Z,23.80
2018-06-03T12:03:17.400Z,23.80
2018-06-03T12:05:50.128Z,24.10
2018-06-03T12:08:21.578Z,24.40
2018-06-03T12:10:53.493Z,24.60
2018-06-03T12:13:25.844Z,24.80
2018-06-03T12:15:58.664Z,24.80
2018-06-03T12:18:30.326Z,24.30
2018-06-03T12:21:03.659Z,24.40
2018-06-03T12:23:36.214Z,24.30
2018-06-03T12:26:10.481Z,24.20
2018-06-03T12:28:42.221Z,24.10
2018-06-03T12:31:15.452Z,23.90
2018-06-03T12:33:47.422Z,24.00
2018-06-03T12:36:19.987Z,24.40
2018-06-03T12:38:52.010Z,24.30
2018-06-03T12:41:22.763Z,24.10
2018-06-03T12:43:53.729Z,24.00
2018-06-03T12:46:24.222Z,23.70
2018-06-03T12:48:57.856Z,25.00
2018-06-03T12:51:28.641Z,23.50
2018-06-03T12:53:59.866Z,23.50
2018-06-03T12:56:31.186Z,23.40
2018-06-03T12:59:02.505Z,23.50
2018-06-03T13:01:34.929Z,23.50
2018-06-03T13:04:07.369Z,23.80
2018-06-03T13:06:42.914Z,23.80
2018-06-03T13:09:17.801Z,22.50
2018-06-03T13:11:50.617Z,23.70
2018-06-03T13:14:23.068Z,23.50
2018-06-03T13:16:54.280Z,23.20
2018-06-03T13:19:26.120Z,23.20
2018-06-03T13:21:58.392Z,25.00
2018-06-03T13:24:30.788Z,23.50
2018-06-03T13:27:01.980Z,23.50
2018-06-03T13:29:33.763Z,23.60
2018-06-03T13:32:05.988Z,23.80
2018-06-03T13:34:36.751Z,22.70
2018-06-03T13:37:09.982Z,23.80
2018-06-03T13:39:41.327Z,23.90
2018-06-03T13:42:16.432Z,24.20
2018-06-03T13:44:48.812Z,24.50
2018-06-03T13:47:20.140Z,24.40
2018-06-03T13:49:51.639Z,24.40
2018-06-03T13:52:24.245Z,24.40
2018-06-03T13:54:55.978Z,24.20
2018-06-03T13:57:29.074Z,24.10
2018-06-03T14:00:02.421Z,24.10
2018-06-03T14:02:34.387Z,24.70
2018-06-03T14:05:06.227Z,24.30
2018-06-03T14:07:40.291Z,24.20
2018-06-03T14:10:11.251Z,24.30
2018-06-03T14:12:42.640Z,24.40
2018-06-03T14:15:14.675Z,24.50
2018-06-03T14:17:46.404Z,24.60
2018-06-03T14:20:19.033Z,24.10
2018-06-03T14:22:53.755Z,24.00
2018-06-03T14:25:26.411Z,24.00
2018-06-03T14:28:00.010Z,24.30
2018-06-03T14:30:32.449Z,24.50
2018-06-03T14:33:04.697Z,24.20
2018-06-03T14:35:41.937Z,24.20
2018-06-03T14:38:16.811Z,24.30
2018-06-03T14:40:51.416Z,24.10
2018-06-03T14:43:27.375Z,24.20
2018-06-03T14:46:06.485Z,24.20
2018-06-03T14:48:39.827Z,23.90
2018-06-03T14:51:13.646Z,24.00
2018-06-03T14:53:51.152Z,24.10
2018-06-03T14:56:25.213Z,24.30
2018-06-03T14:59:05.824Z,24.30
2018-06-03T15:01:38.297Z,24.10
2018-06-03T15:04:15.856Z,23.80
2018-06-03T15:06:52.509Z,23.90
2018-06-03T15:09:26.165Z,24.00
2018-06-03T15:11:57.325Z,24.20
2018-06-03T15:14:29.988Z,24.20
2018-06-03T15:17:05.366Z,23.90
2018-06-03T15:19:38.879Z,24.20
2018-06-03T15:22:10.917Z,23.20
2018-06-03T15:24:42.896Z,24.10
2018-06-03T15:27:15.573Z,22.90
2018-06-03T15:29:50.219Z,24.10
2018-06-03T15:32:22.027Z,24.00
2018-06-03T15:34:54.103Z,24.00
2018-06-03T15:37:25.048Z,24.10
2018-06-03T15:39:57.039Z,24.30
2018-06-03T15:42:29.464Z,24.10
2018-06-03T15:45:00.527Z,24.20
2018-06-03T15:47:33.539Z,22.70
2018-06-03T15:50:06.439Z,24.10
2018-06-03T15:52:40.506Z,24.00
2018-06-03T15:55:14.594Z,23.90
2018-06-03T15:57:47.099Z,24.00
2018-06-03T16:00:19.978Z,24.00
2018-06-03T16:02:52.683Z,24.00
2018-06-03T16:05:25.428Z,25.50
2018-06-03T16:07:57.065Z,24.10
2018-06-03T16:10:28.963Z,22.70
2018-06-03T16:13:01.503Z,23.90
2018-06-03T16:15:38.823Z,23.90
2018-06-03T16:18:13.853Z,24.10
2018-06-03T16:20:58.828Z,24.30
2018-06-03T16:23:36.172Z,24.00
2018-06-03T16:26:12.083Z,24.10
2018-06-03T16:28:45.184Z,23.90
2018-06-03T16:31:19.552Z,23.90
2018-06-03T16:33:55.452Z,23.70
2018-06-03T16:36:26.677Z,23.70
2018-06-03T16:39:03.416Z,23.80
2018-06-03T16:41:46.940Z,23.60
2018-06-03T16:44:19.235Z,23.40
2018-06-03T16:46:51.215Z,23.50
2018-06-03T16:49:25.504Z,23.60
2018-06-03T16:52:04.140Z,23.50
2018-06-03T16:54:34.860Z,23.50
2018-06-03T16:57:13.065Z,23.70
2018-06-03T16:59:46.649Z,23.20
2018-06-03T17:02:20.289Z,23.50
2018-06-03T17:04:51.962Z,23.60
2018-06-03T17:07:29.050Z,23.90
2018-06-03T17:10:01.793Z,23.90
2018-06-03T17:12:32.483Z,23.70
2018-06-03T17:15:04.233Z,23.60
2018-06-03T17:17:37.020Z,23.80
2018-06-03T17:20:08.237Z,23.80
2018-06-03T17:22:39.438Z,24.00
2018-06-03T17:25:12.453Z,23.90
2018-06-03T17:27:44.172Z,23.70
2018-06-03T17:30:16.038Z,23.60
2018-06-03T17:32:48.596Z,23.50
2018-06-03T17:35:20.946Z,23.50
2018-06-03T17:37:52.624Z,23.60
2018-06-03T17:40:23.781Z,23.60
2018-06-03T17:42:54.079Z,23.60
2018-06-03T17:46:44.276Z,23.40
2018-06-03T17:49:18.527Z,23.20
2018-06-03T17:51:50.181Z,23.50
2018-06-03T17:54:21.387Z,23.50
2018-06-03T17:57:02.079Z,23.50
2018-06-03T17:59:35.925Z,23.50
2018-06-03T18:02:08.936Z,23.20
2018-06-03T18:04:43.409Z,23.40
2018-06-03T18:07:15.582Z,23.40
2018-06-03T18:09:46.751Z,23.60
2018-06-03T18:12:19.259Z,23.80
2018-06-03T18:14:50.260Z,23.90
2018-06-03T18:17:22.252Z,22.20
2018-06-03T18:19:53.004Z,22.40
2018-06-03T18:22:32.359Z,23.80
2018-06-03T18:25:06.453Z,23.60
2018-06-03T18:27:37.148Z,23.40
2018-06-03T18:30:07.989Z,23.50
2018-06-03T18:32:41.522Z,23.60
2018-06-03T18:35:12.005Z,23.50
2018-06-03T18:37:42.597Z,23.40
2018-06-03T18:40:15.841Z,23.30
2018-06-03T18:42:46.986Z,23.40
2018-06-03T18:45:19.484Z,23.30
2018-06-03T18:47:51.121Z,23.20
2018-06-03T18:50:21.724Z,23.20
2018-06-03T18:52:52.998Z,23.20
2018-06-03T18:55:27.079Z,21.80
2018-06-03T18:58:00.593Z,22.40
2018-06-03T19:00:34.089Z,23.20
2018-06-03T19:03:09.721Z,23.00
2018-06-03T19:05:42.877Z,23.10
2018-06-03T19:08:18.034Z,23.10
2018-06-03T19:10:49.644Z,23.00
2018-06-03T19:13:22.018Z,23.00
2018-06-03T19:15:57.344Z,23.00
2018-06-03T19:18:34.608Z,23.00
2018-06-03T19:21:07.015Z,23.00
2018-06-03T19:23:37.780Z,23.20
2018-06-03T19:26:10.988Z,23.20
2018-06-03T19:28:42.973Z,23.30
2018-06-03T19:31:13.924Z,23.20
2018-06-03T19:33:44.470Z,23.20
2018-06-03T19:36:15.202Z,23.30
2018-06-03T19:38:45.906Z,23.20
2018-06-03T19:41:16.245Z,23.10
2018-06-03T19:43:46.747Z,23.10
2018-06-03T19:46:17.989Z,23.00
2018-06-03T19:48:49.348Z,23.70
2018-06-03T19:51:21.959Z,22.80
2018-06-03T19:53:52.894Z,22.70
2018-06-03T19:56:24.421Z,22.80
2018-06-03T19:58:56.636Z,22.70
2018-06-03T20:01:28.429Z,22.70
2018-06-03T20:03:59.297Z,22.70
2018-06-03T20:06:32.286Z,22.60
2018-06-03T20:11:54.570Z,22.10
2018-06-03T20:14:25.956Z,22.00
2018-06-03T20:16:56.911Z,22.00
2018-06-03T20:19:27.963Z,22.10
2018-06-03T20:22:00.214Z,21.90
2018-06-03T20:24:31.646Z,22.00
2018-06-03T20:27:03.139Z,22.10
2018-06-03T20:29:39.689Z,22.00
2018-06-03T20:32:13.211Z,22.00
2018-06-03T20:34:47.110Z,21.80
2018-06-03T20:37:18.066Z,21.60
2018-06-03T20:39:48.964Z,21.50
2018-06-03T20:42:20.309Z,21.60
2018-06-03T20:44:51.018Z,22.50
2018-06-03T20:47:23.311Z,20.60
2018-06-03T20:49:53.504Z,21.60
2018-06-03T20:52:24.778Z,21.70
2018-06-03T20:54:56.064Z,21.50
2018-06-03T20:57:27.311Z,21.50
2018-06-03T20:59:58.266Z,21.50
2018-06-03T21:02:28.791Z,21.40
2018-06-03T21:05:01.815Z,21.40
2018-06-03T21:07:35.671Z,21.20
2018-06-03T21:10:09.206Z,21.20
2018-06-03T21:12:40.665Z,21.30
2018-06-03T21:15:12.024Z,21.30
2018-06-03T21:17:42.871Z,21.20
2018-06-03T21:20:13.553Z,21.10
2018-06-03T21:22:44.145Z,21.10
2018-06-03T21:25:16.303Z,21.10
2018-06-03T21:27:48.220Z,22.10
2018-06-03T21:30:21.662Z,21.20
2018-06-03T21:32:52.384Z,21.20
2018-06-03T21:35:23.467Z,21.20
2018-06-03T21:37:55.965Z,21.20
2018-06-03T21:40:29.238Z,21.20
2018-06-03T21:43:08.284Z,21.10
2018-06-03T21:45:42.660Z,21.00
2018-06-03T21:48:16.617Z,20.90
2018-06-03T21:50:48.243Z,21.00
2018-06-03T21:53:20.175Z,21.00
2018-06-03T21:55:51.069Z,20.90
2018-06-03T21:58:25.596Z,20.90
2018-06-03T22:01:00.415Z,20.80
2018-06-03T22:03:32.358Z,20.80
2018-06-03T22:06:05.227Z,20.70
2018-06-03T22:08:36.096Z,20.70
2018-06-03T22:11:08.554Z,20.60
2018-06-03T22:13:39.083Z,20.40
2018-06-03T22:16:10.454Z,20.40
2018-06-03T22:18:43.167Z,20.30
2018-06-03T22:21:14.153Z,20.30
2018-06-03T22:23:46.106Z,20.40
2018-06-03T22:26:17.111Z,20.30
2018-06-03T22:28:48.622Z,20.30
2018-06-03T22:31:18.968Z,20.20
2018-06-03T22:33:50.447Z,20.20
2018-06-03T22:36:20.897Z,20.20
2018-06-03T22:38:52.477Z,20.10
2018-06-03T22:41:26.273Z,20.10
2018-06-03T22:43:58.154Z,20.00
2018-06-03T22:46:29.985Z,19.90
2018-06-03T22:49:01.544Z,19.90
2018-06-03T22:51:35.085Z,19.90
2018-06-03T22:54:05.910Z,20.00
2018-06-03T22:56:47.926Z,19.90
2018-06-03T22:59:18.663Z,19.90
2018-06-03T23:01:52.117Z,19.90
2018-06-03T23:04:22.712Z,19.90
2018-06-03T23:06:56.131Z,19.90
2018-06-03T23:09:27.021Z,19.80
2018-06-03T23:11:57.976Z,19.20
2018-06-03T23:14:29.352Z,19.80
2018-06-03T23:17:01.077Z,19.70
2018-06-03T23:19:31.527Z,19.70
2018-06-03T23:22:05.359Z,19.70
2018-06-03T23:24:37.586Z,19.70
2018-06-03T23:27:09.472Z,19.70
2018-06-03T23:29:41.236Z,19.60
2018-06-03T23:32:14.003Z,19.50
2018-06-03T23:34:45.594Z,18.70
2018-06-03T23:37:16.125Z,20.40
2018-06-03T23:39:47.553Z,19.40
2018-06-03T23:42:21.976Z,19.40
2018-06-03T23:44:52.171Z,19.50
2018-06-03T23:47:22.751Z,19.30
2018-06-03T23:49:52.927Z,19.20
2018-06-03T23:52:22.977Z,19.20
2018-06-03T23:54:53.009Z,19.20
2018-06-03T23:57:23.281Z,19.20
2018-06-03T23:59:53.441Z,19.20
